Latest Weather Observations for Cooma Airport

IDN60801

Issued at 12:53 am EST Thursday 15 April 2021 (issued every 10 minutes, with the page automatically refreshed every 10 minutes)

About weather observations | Map of weather stations | Latest weather observations for NSW | Other Formats
Station Details ID: 070217 Name: COOMA AIRPORT AWS Lat: -36.29 Lon: 148.97 Height: 930.0 m
Data from the previous 72 hours. | See also: Recent months at Cooma Airport
Date/Time
EST
Temp
°C
App
Temp
°C
Dew
Point
°C
Rel
Hum
%
Delta-T
°C
Wind Press
QNH
hPa
Press
MSL
hPa
Rain since
9am
mm
Dir  Spd
km/h
Gust
km/h
Spd
kts
Gust
kts
15/12:30am 6.8 2.9 1.3 68 2.3 WNW 11 13 6 7 1015.0 1013.7 0.0
15/12:00am 7.6 3.9 2.1 68 2.4 WNW 11 13 6 7 1014.9 1013.6 0.0
 
Date/Time
EST
Temp
°C
App
Temp
°C
Dew
Point
°C
Rel
Hum
%
Delta-T
°C
Wind Press
QNH
hPa
Press
MSL
hPa
Rain since
9am
mm
Dir  Spd
km/h
Gust
km/h
Spd
kts
Gust
kts
14/11:30pm 9.3 5.7 2.9 64 2.9 NW 11 15 6 8 1014.9 1013.6 0.0
14/11:00pm 9.4 5.8 2.9 64 2.9 NW 11 20 6 11 1015.1 1013.8 0.0
14/10:30pm 8.0 4.4 3.1 71 2.2 NW 11 15 6 8 1015.3 1014.0 0.0
14/10:00pm 5.2 1.1 0.0 69 2.1 NNW 11 17 6 9 1015.6 1014.3 0.0
14/09:30pm 7.4 4.3 1.3 65 2.6 NNW 7 13 4 7 1015.6 1014.3 0.0
14/09:00pm 9.8 6.2 2.9 62 3.1 WNW 11 17 6 9 1015.3 1014.0 0.0
14/08:30pm 10.2 5.1 3.3 62 3.2 WNW 19 24 10 13 1015.1 1013.8 0.0
14/08:00pm 8.8 5.8 2.2 63 2.9 NNW 7 11 4 6 1015.5 1014.1 0.0
14/07:30pm 10.4 7.2 3.0 60 3.4 WSW 9 13 5 7 1015.1 1013.8 0.0
14/07:00pm 11.7 6.5 3.7 58 3.8 WNW 20 33 11 18 1014.5 1013.1 0.0
14/06:30pm 11.4 7.2 3.7 59 3.6 W 15 22 8 12 1014.4 1013.0 0.0
14/06:00pm 11.5 6.7 2.8 55 4.0 W 17 28 9 15 1013.8 1012.5 0.0
14/05:30pm 12.7 7.0 2.8 51 4.6 WNW 22 35 12 19 1013.4 1012.0 0.0
14/05:00pm 14.0 7.5 2.9 47 5.2 W 26 37 14 20 1013.3 1011.9 0.0
14/04:30pm 15.1 10.0 3.0 44 5.8 WNW 19 30 10 16 1013.2 1011.8 0.0
14/04:00pm 15.2 8.3 2.7 43 5.9 WNW 28 41 15 22 1012.8 1011.5 0.0
14/03:30pm 15.4 8.5 2.6 42 6.0 WNW 28 39 15 21 1013.2 1011.8 0.0
14/03:09pm 15.2 8.1 1.4 39 6.3 WNW 28 48 15 26 1013.0 1011.7 0.0
14/03:00pm 15.6 9.3 1.7 39 6.5 WNW 24 43 13 23 1013.2 1011.8 0.0
14/02:54pm 16.0 9.0 2.1 39 6.5 WNW 28 46 15 25 1013.2 1011.8 0.0
14/02:30pm 16.0 8.1 1.0 36 6.9 W 32 44 17 24 1013.2 1011.8 0.0
14/02:00pm 16.2 8.6 0.3 34 7.2 WNW 30 43 16 23 1012.9 1011.6 0.0
14/01:30pm 17.0 10.7 1.8 36 7.2 NW 24 39 13 21 1012.4 1011.0 0.0
14/01:00pm 17.2 9.7 3.5 40 6.7 NW 32 43 17 23 1012.5 1011.1 0.0
14/12:30pm 16.7 9.1 0.8 34 7.3 WNW 30 48 16 26 1013.0 1011.7 0.0
14/12:08pm 16.9 8.5 1.4 35 7.2 WNW 35 54 19 29 1013.4 1012.0 0.0
14/12:00pm 17.5 9.7 1.9 35 7.4 WNW 32 48 17 26 1013.4 1012.0 0.0
14/11:30am 16.5 6.7 -0.2 32 7.5 WNW 41 61 22 33 1013.7 1012.4 0.0
14/11:12am 16.9 8.6 -0.3 31 7.7 WNW 33 52 18 28 1013.5 1012.1 0.0
14/11:00am 16.8 7.7 -0.4 31 7.7 W 37 54 20 29 1013.6 1012.2 0.0
14/10:30am 17.1 7.7 -0.1 31 7.8 W 39 61 21 33 1013.6 1012.2 0.0
14/10:00am 15.4 4.8 -1.6 31 7.4 WNW 44 70 24 38 1013.7 1012.4 0.0
14/09:30am 15.1 5.3 -2.8 29 7.5 WNW 39 59 21 32 1013.4 1012.0 0.0
14/09:00am 14.6 6.8 -1.1 34 6.8 WNW 30 50 16 27 1013.4 1012.0 0.2
14/08:30am 15.4 7.7 0.0 35 6.9 WNW 30 48 16 26 1013.3 1011.9 0.2
14/08:13am 14.3 6.8 -1.3 34 6.7 WNW 28 59 15 32 1013.3 1011.9 0.2
14/08:00am 13.8 6.7 -1.0 36 6.4 WNW 26 44 14 24 1013.3 1011.9 0.2
14/07:30am 13.4 7.7 -1.0 37 6.2 WNW 19 33 10 18 1012.9 1011.6 0.2
14/07:00am 13.3 7.4 -0.7 38 6.1 WNW 20 37 11 20 1012.5 1011.1 0.2
14/06:30am 13.5 9.7 -0.5 38 6.1 NW 9 28 5 15 1012.8 1011.5 0.2
14/06:00am 13.2 9.9 -0.1 40 5.8 NW 7 15 4 8 1012.9 1011.6 0.2
14/05:30am 13.0 7.6 1.0 44 5.4 NW 19 30 10 16 1013.2 1011.8 0.2
14/05:00am 12.0 7.8 1.6 49 4.7 NNW 13 20 7 11 1013.0 1011.7 0.2
14/04:30am 11.6 7.8 1.5 50 4.5 N 11 17 6 9 1013.2 1011.8 0.2
14/04:00am 12.3 6.3 1.3 47 4.9 NNW 22 32 12 17 1013.2 1011.8 0.2
14/03:30am 12.0 5.7 1.3 48 4.8 NNW 24 33 13 18 1013.5 1012.1 0.2
14/03:00am 12.5 6.1 1.2 46 5.1 NNW 24 35 13 19 1013.4 1012.0 0.2
14/02:30am 12.6 7.3 1.6 47 5.0 NNW 19 32 10 17 1014.1 1012.8 0.2
14/02:00am 12.0 8.1 1.3 48 4.8 NNW 11 20 6 11 1014.6 1013.2 0.2
14/01:30am 11.9 7.3 1.8 50 4.6 N 15 26 8 14 1014.7 1013.4 0.2
14/01:00am 11.8 6.5 1.7 50 4.5 N 19 28 10 15 1015.3 1014.0 0.2
14/12:30am 12.3 7.4 2.2 50 4.6 NW 17 24 9 13 1015.9 1014.6 0.2
14/12:00am 11.1 6.8 3.2 58 3.7 N 15 19 8 10 1016.0 1014.7 0.2
 
Date/Time
EST
Temp
°C
App
Temp
°C
Dew
Point
°C
Rel
Hum
%
Delta-T
°C
Wind Press
QNH
hPa
Press
MSL
hPa
Rain since
9am
mm
Dir  Spd
km/h
Gust
km/h
Spd
kts
Gust
kts
13/11:30pm 11.8 7.7 2.3 52 4.3 N 13 20 7 11 1016.3 1015.0 0.2
13/11:00pm 11.8 7.7 2.3 52 4.3 N 13 30 7 16 1016.7 1015.4 0.2
13/10:30pm 11.3 7.2 2.3 54 4.1 N 13 19 7 10 1017.0 1015.7 0.2
13/10:00pm 11.5 6.3 2.3 53 4.2 NNW 19 26 10 14 1017.1 1015.8 0.2
13/09:30pm 9.8 6.2 0.9 54 3.9 NE 9 13 5 7 1017.1 1015.8 0.2
13/09:00pm 10.9 7.0 0.9 50 4.4 NNW 11 17 6 9 1017.1 1015.8 0.2
13/08:30pm 10.7 6.7 0.4 49 4.5 NNE 11 15 6 8 1016.9 1015.6 0.2
13/08:00pm 10.7 5.6 1.0 51 4.3 N 17 22 9 12 1016.9 1015.6 0.2
13/07:30pm 11.4 7.6 1.9 52 4.3 N 11 15 6 8 1017.2 1015.9 0.2
13/07:00pm 11.7 8.1 2.7 54 4.1 NNW 11 17 6 9 1017.1 1015.8 0.2
13/06:30pm 12.1 8.9 2.8 53 4.3 N 9 15 5 8 1017.0 1015.7 0.2
13/06:00pm 12.9 8.9 3.0 51 4.6 NNW 13 19 7 10 1016.7 1015.4 0.2
13/05:30pm 13.9 9.6 0.9 41 5.9 NW 13 20 7 11 1016.9 1015.6 0.2
13/05:00pm 14.6 9.3 -0.3 36 6.6 NW 17 24 9 13 1016.3 1015.0 0.2
13/04:30pm 15.8 10.0 -1.3 31 7.5 NW 19 26 10 14 1016.5 1015.3 0.2
13/04:00pm 15.5 9.6 -1.1 32 7.3 NW 20 28 11 15 1016.5 1015.3 0.2
13/03:30pm 15.8 10.6 0.4 35 7.0 NW 17 24 9 13 1016.5 1015.3 0.2
13/03:00pm 17.3 11.7 1.3 34 7.5 NNW 20 33 11 18 1016.9 1015.6 0.2
13/02:30pm 16.9 11.0 1.4 35 7.2 NNW 22 30 12 16 1017.0 1015.7 0.2
13/02:00pm 17.5 12.1 1.5 34 7.5 NNW 19 28 10 15 1017.3 1016.0 0.2
13/01:30pm 17.6 12.1 1.6 34 7.5 NNW 20 32 11 17 1017.5 1016.3 0.2
13/01:00pm 16.6 11.3 -0.6 31 7.7 NNW 17 28 9 15 1018.0 1016.7 0.2
13/12:30pm 16.9 11.6 1.8 36 7.1 NNW 19 24 10 13 1018.3 1017.0 0.2
13/12:00pm 14.5 9.6 5.3 54 4.6 NE 20 28 11 15 1019.0 1017.7 0.2
13/11:30am 13.1 8.4 5.3 59 3.8 NE 19 28 10 15 1019.4 1018.2 0.0
13/11:00am 11.3 6.0 5.2 66 2.9 NE 22 28 12 15 1020.2 1018.9 0.0
13/10:30am 9.8 4.7 5.8 76 1.9 NE 22 30 12 16 1020.6 1019.4 0.0
13/10:17am 8.4 3.6 5.5 82 1.4 NE 20 30 11 16 1020.8 1019.6 0.0
13/10:00am 7.1 2.2 7.0 99 0.0 NE 22 28 12 15 1021.0 1019.8 0.0
13/09:43am 5.7 0.9 5.6 99 0.0 NE 20 26 11 14 1021.3 1020.1 0.0
13/09:30am 5.4 0.7 5.3 99 0.0 NE 19 28 10 15 1021.4 1020.2 0.0
13/09:00am 3.5 -2.1 3.4 99 0.0 NE 22 26 12 14 1021.6 1020.4 0.0
13/08:30am 2.6 -2.8 2.5 99 0.0 NNE 20 24 11 13 1021.9 1020.7 0.0
13/08:00am 1.0 -3.7 0.9 99 0.0 NNE 15 17 8 9 1021.9 1020.7 0.0
13/07:50am 0.3 -4.9 0.2 99 0.0 NE 17 20 9 11 1021.8 1020.6 0.0
13/07:49am 0.3 -4.9 0.2 99 0.0 NE 17 20 9 11 1021.8 1020.6 0.0
13/07:30am -0.2 -4.7 -0.3 99 0.0 NE 13 19 7 10 1021.7 1020.5 0.0
13/07:23am -1.0 -5.2 -1.1 99 0.0 NE 11 13 6 7 1021.7 1020.5 0.0
13/07:10am -1.7 -5.6 -1.8 99 0.0 NE 9 11 5 6 1021.6 1020.4 0.0
13/07:00am -2.9 -6.6 -3.0 99 -0.1 NNE 7 7 4 4 1021.7 1020.5 0.0
13/06:30am -4.0 -7.7 -4.1 99 -0.1 N 6 7 3 4 1021.6 1020.4 0.0
13/06:00am -3.6 -7.4 -3.7 99 -0.1 N 7 7 4 4 1021.6 1020.4 0.0
13/05:30am -4.1 -7.8 -4.2 99 -0.1 N 6 7 3 4 1021.5 1020.3 0.0
13/05:00am -4.1 -7.8 -4.4 98 -0.1 N 6 7 3 4 1021.4 1020.2 0.0
13/04:30am -3.5 -7.1 -3.6 99 -0.1 NE 6 7 3 4 1021.4 1020.2 0.0
13/04:00am -3.8 -6.3 -4.2 97 0.0 CALM 0 0 0 0 1021.0 1019.8 0.0
13/03:59am -3.9 -6.4 -4.3 97 0.0 CALM 0 0 0 0 1021.0 1019.8 0.0
13/03:55am -3.9 -6.4 -4.3 97 0.0 CALM 0 6 0 3 1021.0 1019.8 0.0
13/03:54am -3.9 -6.8 -4.3 97 0.0 N 2 7 1 4 1021.0 1019.8 0.0
13/03:30am -3.4 -5.9 -3.8 97 0.0 CALM 0 0 0 0 1021.0 1019.8 0.0
13/03:22am -3.7 -6.2 -4.1 97 0.0 CALM 0 0 0 0 1021.0 1019.8 0.0
13/03:00am -2.3 -5.7 -2.4 99 -0.1 N 6 9 3 5 1021.3 1020.1 0.0
13/02:53am -1.5 -5.0 -1.6 99 0.0 N 7 9 4 5 1021.3 1020.1 0.0
13/02:30am -3.5 -7.3 -4.0 96 0.0 NNE 7 7 4 4 1021.3 1020.1 0.0
13/02:00am -3.2 -5.7 -3.6 97 0.0 CALM 0 6 0 3 1021.6 1020.4 0.0
13/01:30am -2.7 -5.1 -3.2 96 0.1 CALM 0 0 0 0 1021.6 1020.4 0.0
13/01:00am -2.1 -4.8 -2.6 96 0.1 NE 2 6 1 3 1021.8 1020.6 0.0
13/12:30am -0.9 -3.4 -1.0 99 0.0 NW 2 7 1 4 1021.9 1020.7 0.0
13/12:00am -1.8 -4.1 -2.4 96 0.1 CALM 0 0 0 0 1022.2 1021.1 0.0
 
Date/Time
EST
Temp
°C
App
Temp
°C
Dew
Point
°C
Rel
Hum
%
Delta-T
°C
Wind Press
QNH
hPa
Press
MSL
hPa
Rain since
9am
mm
Dir  Spd
km/h
Gust
km/h
Spd
kts
Gust
kts
12/11:30pm -1.1 -3.3 -1.4 98 0.1 CALM 0 0 0 0 1022.6 1021.4 0.0
12/11:00pm -1.3 -3.5 -1.9 96 0.2 CALM 0 0 0 0 1022.5 1021.3 0.0
12/10:30pm -1.3 -4.9 -2.1 94 0.2 SSW 7 9 4 5 1022.5 1021.3 0.0
12/10:00pm -0.5 -3.1 -1.9 90 0.5 NNW 2 6 1 3 1022.6 1021.4 0.0
12/09:30pm 1.5 -0.4 0.8 95 0.3 CALM 0 6 0 3 1022.5 1021.3 0.0
12/09:00pm 1.6 -0.8 -0.2 88 0.7 NE 2 7 1 4 1022.1 1020.9 0.0
12/08:30pm 3.7 0.3 2.1 89 0.7 W 9 13 5 7 1021.7 1020.5 0.0
12/08:00pm 4.1 -0.7 2.5 89 0.7 SW 17 20 9 11 1021.3 1020.1 0.0
12/07:30pm 3.8 0.0 1.5 85 1.0 W 11 13 6 7 1021.1 1019.9 0.0
12/07:00pm 3.8 -0.2 0.8 81 1.2 SSW 11 15 6 8 1021.0 1019.8 0.0
12/06:30pm 4.3 0.4 1.0 79 1.4 SSW 11 15 6 8 1020.6 1019.4 0.0
12/06:00pm 6.4 1.5 2.1 74 1.9 SSW 17 20 9 11 1020.2 1018.9 0.0
12/05:30pm 8.1 1.9 2.4 67 2.5 SSW 24 30 13 16 1019.8 1018.6 0.0
12/05:00pm 9.3 3.5 2.4 62 3.1 SSW 22 30 12 16 1019.7 1018.5 0.0
12/04:30pm 10.6 4.9 2.7 58 3.6 S 22 32 12 17 1019.4 1018.2 0.0
12/04:00pm 11.4 5.3 2.9 56 3.9 SSW 24 35 13 19 1019.3 1018.0 0.0
12/03:30pm 10.4 4.7 3.0 60 3.4 SSW 22 28 12 15 1019.3 1018.0 0.0
12/03:00pm 11.1 4.7 3.4 59 3.6 SSW 26 35 14 19 1019.3 1018.0 0.0
12/02:30pm 10.7 4.3 3.0 59 3.5 SSW 26 33 14 18 1019.3 1018.0 0.0
12/02:00pm 10.4 4.8 3.4 62 3.2 SSW 22 30 12 16 1019.3 1018.0 0.0
12/01:30pm 10.0 2.8 2.8 61 3.3 SW 30 39 16 21 1019.1 1017.8 0.0
12/01:00pm 11.1 4.1 3.9 61 3.4 SW 30 43 16 23 1019.1 1017.8 0.0
12/12:30pm 10.0 2.9 3.3 63 3.1 SW 30 43 16 23 1019.4 1018.2 0.0
12/12:00pm 9.3 2.1 3.1 65 2.8 SW 30 43 16 23 1019.7 1018.5 0.0
12/11:30am 9.5 1.9 2.8 63 3.0 SW 32 43 17 23 1019.8 1018.6 0.0
12/11:00am 9.4 1.4 3.6 67 2.7 SW 35 48 19 26 1019.8 1018.6 0.0
12/10:30am 7.9 0.1 2.6 69 2.4 SW 33 44 18 24 1019.7 1018.5 0.0
12/10:00am 8.0 0.5 3.5 73 2.0 SW 32 41 17 22 1019.5 1018.3 0.0
12/09:30am 7.1 -0.7 1.8 69 2.3 SW 32 41 17 22 1019.5 1018.3 0.0
12/09:00am 7.6 1.0 2.1 68 2.4 SW 26 41 14 22 1019.3 1018.0 1.6
12/08:30am 6.0 -1.3 -0.1 65 2.5 SSW 28 35 15 19 1019.1 1017.8 1.6
12/08:00am 5.2 -1.4 -0.6 66 2.3 SW 24 32 13 17 1018.5 1017.3 1.6
12/07:30am 5.0 -0.3 -0.8 66 2.3 WSW 17 24 9 13 1018.3 1017.0 1.6
12/07:00am 3.5 -2.3 -1.3 71 1.8 SW 19 28 10 15 1018.0 1016.7 1.6
12/06:30am 3.0 -3.0 -1.9 70 1.8 WSW 20 32 11 17 1017.6 1016.4 1.6
12/06:00am 2.3 -3.2 -1.8 74 1.5 SW 17 19 9 10 1017.3 1016.0 1.6
12/05:30am 2.9 -3.5 -2.0 70 1.8 SW 22 28 12 15 1017.0 1015.7 1.6
12/05:00am 2.9 -3.9 -1.8 71 1.8 SW 24 32 13 17 1016.4 1015.1 1.6
12/04:30am 3.0 -3.8 -1.9 70 1.8 SW 24 32 13 17 1016.2 1014.9 1.6
12/04:00am 3.0 -3.4 -1.5 72 1.7 SW 22 30 12 16 1016.0 1014.7 1.6
12/03:30am 2.8 -3.2 -1.7 72 1.7 SW 20 28 11 15 1015.9 1014.6 1.6
12/03:00am 3.1 -2.9 -1.4 72 1.7 SW 20 26 11 14 1015.9 1014.6 1.6
12/02:30am 2.3 -3.2 -1.8 74 1.5 SW 17 20 9 11 1015.9 1014.6 1.6
12/02:00am 3.2 -1.9 -1.7 70 1.9 WSW 15 20 8 11 1015.8 1014.5 1.6
12/01:30am 3.0 -2.5 -1.9 70 1.8 WSW 17 22 9 12 1015.8 1014.5 1.6
12/01:00am 2.7 -2.4 -1.6 73 1.6 WSW 15 20 8 11 1015.8 1014.5 1.6

Other formats

Comma delimited format used in spreadsheet applications
http://www.bom.gov.au/fwo/IDN60801/IDN60801.94921.axf

JavaScript Object Notation format (JSON) in row-major order
http://www.bom.gov.au/fwo/IDN60801/IDN60801.94921.json

Data quality

Most of these data are generated automatically and are frequently updated. Quality checks on data are not normally performed. It is possible for incorrect values to appear. Refer to information at About Latest Weather Observations and please check the disclaimer before using these data.